sensor_id;sensor_type;location;lat;lon;timestamp;P1;durP1;ratioP1;P2;durP2;ratioP2
23163;SDS011;31429;42.674;23.350;2022-12-18T00:00:32;10.27;;;8.77;;
23163;SDS011;31429;42.674;23.350;2022-12-18T00:01:33;10.73;;;9.03;;
23163;SDS011;31429;42.674;23.350;2022-12-18T00:02:35;11.82;;;8.95;;
23163;SDS011;31429;42.674;23.350;2022-12-18T00:03:35;11.10;;;8.90;;
23163;SDS011;31429;42.674;23.350;2022-12-18T00:04:36;10.47;;;9.37;;
23163;SDS011;31429;42.674;23.350;2022-12-18T00:05:37;12.70;;;11.03;;
23163;SDS011;31429;42.674;23.350;2022-12-18T00:06:39;10.53;;;9.00;;
23163;SDS011;31429;42.674;23.350;2022-12-18T00:07:39;12.40;;;9.95;;
23163;SDS011;31429;42.674;23.350;2022-12-18T00:08:40;11.10;;;9.67;;
23163;SDS011;31429;42.674;23.350;2022-12-18T00:09:41;11.33;;;9.90;;
23163;SDS011;31429;42.674;23.350;2022-12-18T00:10:41;12.13;;;10.37;;
23163;SDS011;31429;42.674;23.350;2022-12-18T00:11:42;11.13;;;9.53;;
23163;SDS011;31429;42.674;23.350;2022-12-18T00:12:43;12.60;;;9.67;;
23163;SDS011;31429;42.674;23.350;2022-12-18T00:13:44;12.37;;;10.33;;
23163;SDS011;31429;42.674;23.350;2022-12-18T00:14:45;12.43;;;10.25;;
23163;SDS011;31429;42.674;23.350;2022-12-18T00:15:45;12.00;;;10.67;;
23163;SDS011;31429;42.674;23.350;2022-12-18T00:16:46;12.77;;;9.83;;
23163;SDS011;31429;42.674;23.350;2022-12-18T00:17:47;12.17;;;10.97;;
23163;SDS011;31429;42.674;23.350;2022-12-18T00:18:48;11.70;;;10.37;;
23163;SDS011;31429;42.674;23.350;2022-12-18T00:19:49;12.82;;;9.90;;
23163;SDS011;31429;42.674;23.350;2022-12-18T00:20:50;12.57;;;10.87;;
23163;SDS011;31429;42.674;23.350;2022-12-18T00:21:52;11.13;;;9.73;;
23163;SDS011;31429;42.674;23.350;2022-12-18T00:22:53;11.50;;;10.05;;
23163;SDS011;31429;42.674;23.350;2022-12-18T00:23:54;11.43;;;9.77;;
23163;SDS011;31429;42.674;23.350;2022-12-18T00:24:55;11.03;;;9.73;;
23163;SDS011;31429;42.674;23.350;2022-12-18T00:25:58;11.23;;;9.30;;
23163;SDS011;31429;42.674;23.350;2022-12-18T00:26:59;10.60;;;9.50;;
23163;SDS011;31429;42.674;23.350;2022-12-18T00:28:00;13.27;;;9.23;;
23163;SDS011;31429;42.674;23.350;2022-12-18T00:29:01;10.43;;;9.40;;
23163;SDS011;31429;42.674;23.350;2022-12-18T00:30:04;13.25;;;11.07;;
23163;SDS011;31429;42.674;23.350;2022-12-18T00:31:06;13.60;;;10.75;;
23163;SDS011;31429;42.674;23.350;2022-12-18T00:32:08;11.88;;;10.27;;
23163;SDS011;31429;42.674;23.350;2022-12-18T00:33:09;12.97;;;11.27;;
23163;SDS011;31429;42.674;23.350;2022-12-18T00:34:10;11.23;;;10.10;;
23163;SDS011;31429;42.674;23.350;2022-12-18T00:35:12;13.27;;;11.82;;
23163;SDS011;31429;42.674;23.350;2022-12-18T00:36:13;11.83;;;10.07;;
23163;SDS011;31429;42.674;23.350;2022-12-18T00:37:16;13.50;;;10.90;;
23163;SDS011;31429;42.674;23.350;2022-12-18T00:38:17;11.18;;;9.90;;
23163;SDS011;31429;42.674;23.350;2022-12-18T00:39:17;14.97;;;11.67;;
23163;SDS011;31429;42.674;23.350;2022-12-18T00:40:18;14.77;;;12.07;;
23163;SDS011;31429;42.674;23.350;2022-12-18T00:41:19;14.40;;;10.97;;
23163;SDS011;31429;42.674;23.350;2022-12-18T00:42:38;10.90;;;9.70;;
23163;SDS011;31429;42.674;23.350;2022-12-18T00:43:57;11.13;;;9.85;;
23163;SDS011;31429;42.674;23.350;2022-12-18T00:44:57;11.27;;;8.80;;
23163;SDS011;31429;42.674;23.350;2022-12-18T00:45:58;13.60;;;10.97;;
23163;SDS011;31429;42.674;23.350;2022-12-18T00:46:59;11.73;;;9.23;;
23163;SDS011;31429;42.674;23.350;2022-12-18T00:47:59;11.60;;;9.93;;
23163;SDS011;31429;42.674;23.350;2022-12-18T00:49:00;12.73;;;10.13;;
23163;SDS011;31429;42.674;23.350;2022-12-18T00:50:01;13.53;;;11.40;;
23163;SDS011;31429;42.674;23.350;2022-12-18T00:51:02;12.15;;;10.13;;
23163;SDS011;31429;42.674;23.350;2022-12-18T00:52:02;10.03;;;8.70;;
23163;SDS011;31429;42.674;23.350;2022-12-18T00:53:04;12.00;;;9.10;;
23163;SDS011;31429;42.674;23.350;2022-12-18T00:54:05;10.85;;;9.73;;
23163;SDS011;31429;42.674;23.350;2022-12-18T00:55:06;10.93;;;9.13;;
23163;SDS011;31429;42.674;23.350;2022-12-18T00:56:08;10.15;;;8.95;;
23163;SDS011;31429;42.674;23.350;2022-12-18T00:57:08;11.13;;;9.57;;
23163;SDS011;31429;42.674;23.350;2022-12-18T00:58:09;10.77;;;9.40;;
23163;SDS011;31429;42.674;23.350;2022-12-18T00:59:11;10.35;;;8.80;;
23163;SDS011;31429;42.674;23.350;2022-12-18T01:00:12;10.63;;;8.70;;
23163;SDS011;31429;42.674;23.350;2022-12-18T01:01:14;10.27;;;8.70;;
23163;SDS011;31429;42.674;23.350;2022-12-18T01:02:14;10.10;;;8.80;;
23163;SDS011;31429;42.674;23.350;2022-12-18T01:03:15;11.17;;;9.23;;
23163;SDS011;31429;42.674;23.350;2022-12-18T01:04:16;10.20;;;8.90;;
23163;SDS011;31429;42.674;23.350;2022-12-18T01:05:16;10.13;;;8.80;;
23163;SDS011;31429;42.674;23.350;2022-12-18T01:06:17;10.70;;;8.87;;
23163;SDS011;31429;42.674;23.350;2022-12-18T01:07:18;11.30;;;9.00;;
23163;SDS011;31429;42.674;23.350;2022-12-18T01:08:20;10.70;;;9.37;;
23163;SDS011;31429;42.674;23.350;2022-12-18T01:09:20;9.90;;;8.80;;
23163;SDS011;31429;42.674;23.350;2022-12-18T01:10:21;9.87;;;8.63;;
23163;SDS011;31429;42.674;23.350;2022-12-18T01:11:22;11.43;;;9.53;;
23163;SDS011;31429;42.674;23.350;2022-12-18T01:12:23;11.05;;;9.55;;
23163;SDS011;31429;42.674;23.350;2022-12-18T01:13:23;13.67;;;10.30;;
23163;SDS011;31429;42.674;23.350;2022-12-18T01:14:24;11.43;;;9.37;;
23163;SDS011;31429;42.674;23.350;2022-12-18T01:15:25;10.13;;;9.10;;
23163;SDS011;31429;42.674;23.350;2022-12-18T01:16:25;10.47;;;9.37;;
23163;SDS011;31429;42.674;23.350;2022-12-18T01:17:26;10.63;;;9.30;;
23163;SDS011;31429;42.674;23.350;2022-12-18T01:18:26;11.80;;;10.27;;
23163;SDS011;31429;42.674;23.350;2022-12-18T01:19:27;10.40;;;9.30;;
23163;SDS011;31429;42.674;23.350;2022-12-18T01:20:28;11.13;;;9.47;;
23163;SDS011;31429;42.674;23.350;2022-12-18T01:21:28;11.67;;;10.17;;
23163;SDS011;31429;42.674;23.350;2022-12-18T01:22:29;14.03;;;10.30;;
23163;SDS011;31429;42.674;23.350;2022-12-18T01:23:31;14.47;;;11.27;;
23163;SDS011;31429;42.674;23.350;2022-12-18T01:25:51;11.75;;;10.50;;
23163;SDS011;31429;42.674;23.350;2022-12-18T01:26:51;13.73;;;10.00;;
23163;SDS011;31429;42.674;23.350;2022-12-18T01:27:52;12.23;;;10.63;;
23163;SDS011;31429;42.674;23.350;2022-12-18T01:28:53;12.00;;;10.80;;
23163;SDS011;31429;42.674;23.350;2022-12-18T01:29:55;13.30;;;11.32;;
23163;SDS011;31429;42.674;23.350;2022-12-18T01:30:55;13.53;;;11.87;;
23163;SDS011;31429;42.674;23.350;2022-12-18T01:31:56;11.53;;;10.33;;
23163;SDS011;31429;42.674;23.350;2022-12-18T01:32:57;14.13;;;11.80;;
23163;SDS011;31429;42.674;23.350;2022-12-18T01:33:59;15.30;;;12.53;;
23163;SDS011;31429;42.674;23.350;2022-12-18T01:35:00;13.77;;;11.82;;
23163;SDS011;31429;42.674;23.350;2022-12-18T01:36:01;15.97;;;11.70;;
23163;SDS011;31429;42.674;23.350;2022-12-18T01:37:02;14.60;;;12.25;;
23163;SDS011;31429;42.674;23.350;2022-12-18T01:38:03;14.45;;;12.07;;
23163;SDS011;31429;42.674;23.350;2022-12-18T01:39:06;14.70;;;12.10;;
23163;SDS011;31429;42.674;23.350;2022-12-18T01:40:08;12.95;;;11.45;;
23163;SDS011;31429;42.674;23.350;2022-12-18T01:41:09;15.48;;;11.90;;
23163;SDS011;31429;42.674;23.350;2022-12-18T01:42:11;14.57;;;12.45;;
23163;SDS011;31429;42.674;23.350;2022-12-18T01:43:14;13.88;;;11.48;;
23163;SDS011;31429;42.674;23.350;2022-12-18T01:45:53;15.13;;;12.40;;
23163;SDS011;31429;42.674;23.350;2022-12-18T01:46:53;14.10;;;12.70;;
23163;SDS011;31429;42.674;23.350;2022-12-18T01:47:55;15.50;;;12.33;;
23163;SDS011;31429;42.674;23.350;2022-12-18T01:48:57;14.90;;;11.98;;
23163;SDS011;31429;42.674;23.350;2022-12-18T01:50:00;13.93;;;11.60;;
23163;SDS011;31429;42.674;23.350;2022-12-18T01:51:04;15.50;;;11.80;;
23163;SDS011;31429;42.674;23.350;2022-12-18T01:52:07;15.10;;;12.05;;
23163;SDS011;31429;42.674;23.350;2022-12-18T01:53:10;16.60;;;11.97;;
23163;SDS011;31429;42.674;23.350;2022-12-18T01:54:14;15.65;;;11.68;;
23163;SDS011;31429;42.674;23.350;2022-12-18T01:55:14;14.45;;;11.82;;
23163;SDS011;31429;42.674;23.350;2022-12-18T01:56:18;13.63;;;11.30;;
23163;SDS011;31429;42.674;23.350;2022-12-18T01:57:20;15.23;;;12.65;;
23163;SDS011;31429;42.674;23.350;2022-12-18T01:58:23;16.33;;;12.60;;
23163;SDS011;31429;42.674;23.350;2022-12-18T01:59:28;14.30;;;11.93;;
23163;SDS011;31429;42.674;23.350;2022-12-18T02:00:31;16.45;;;12.57;;
23163;SDS011;31429;42.674;23.350;2022-12-18T02:01:32;14.23;;;12.20;;
23163;SDS011;31429;42.674;23.350;2022-12-18T02:02:33;14.05;;;11.50;;
23163;SDS011;31429;42.674;23.350;2022-12-18T02:03:33;14.00;;;10.53;;
23163;SDS011;31429;42.674;23.350;2022-12-18T02:04:34;13.00;;;10.70;;
23163;SDS011;31429;42.674;23.350;2022-12-18T02:05:39;15.20;;;12.30;;
23163;SDS011;31429;42.674;23.350;2022-12-18T02:06:44;14.95;;;11.43;;
23163;SDS011;31429;42.674;23.350;2022-12-18T02:07:48;12.80;;;10.90;;
23163;SDS011;31429;42.674;23.350;2022-12-18T02:09:02;16.02;;;11.55;;
23163;SDS011;31429;42.674;23.350;2022-12-18T02:10:13;14.20;;;11.13;;
23163;SDS011;31429;42.674;23.350;2022-12-18T02:11:20;13.05;;;10.50;;
23163;SDS011;31429;42.674;23.350;2022-12-18T02:12:29;12.48;;;10.60;;
23163;SDS011;31429;42.674;23.350;2022-12-18T02:13:40;12.88;;;10.52;;
23163;SDS011;31429;42.674;23.350;2022-12-18T02:14:47;13.18;;;10.18;;
23163;SDS011;31429;42.674;23.350;2022-12-18T02:15:57;13.88;;;10.25;;
23163;SDS011;31429;42.674;23.350;2022-12-18T02:17:03;13.27;;;10.95;;
23163;SDS011;31429;42.674;23.350;2022-12-18T02:18:10;14.32;;;11.20;;
23163;SDS011;31429;42.674;23.350;2022-12-18T02:19:18;13.63;;;10.88;;
23163;SDS011;31429;42.674;23.350;2022-12-18T02:20:31;14.75;;;11.10;;
23163;SDS011;31429;42.674;23.350;2022-12-18T02:21:36;13.45;;;10.93;;
23163;SDS011;31429;42.674;23.350;2022-12-18T02:22:48;13.57;;;11.00;;
23163;SDS011;31429;42.674;23.350;2022-12-18T02:24:01;12.43;;;9.52;;
23163;SDS011;31429;42.674;23.350;2022-12-18T02:25:20;11.25;;;9.25;;
23163;SDS011;31429;42.674;23.350;2022-12-18T02:26:33;10.77;;;9.43;;
23163;SDS011;31429;42.674;23.350;2022-12-18T02:27:37;10.55;;;9.48;;
23163;SDS011;31429;42.674;23.350;2022-12-18T02:28:41;11.88;;;10.55;;
23163;SDS011;31429;42.674;23.350;2022-12-18T02:29:46;12.57;;;9.88;;
23163;SDS011;31429;42.674;23.350;2022-12-18T02:30:50;10.65;;;9.40;;
23163;SDS011;31429;42.674;23.350;2022-12-18T02:31:54;11.68;;;9.88;;
23163;SDS011;31429;42.674;23.350;2022-12-18T02:32:57;11.45;;;9.93;;
23163;SDS011;31429;42.674;23.350;2022-12-18T02:34:00;13.25;;;10.82;;
23163;SDS011;31429;42.674;23.350;2022-12-18T02:35:04;14.30;;;10.55;;
23163;SDS011;31429;42.674;23.350;2022-12-18T02:36:06;12.35;;;10.95;;
23163;SDS011;31429;42.674;23.350;2022-12-18T02:37:10;12.00;;;10.75;;
23163;SDS011;31429;42.674;23.350;2022-12-18T02:38:14;12.88;;;10.63;;
23163;SDS011;31429;42.674;23.350;2022-12-18T02:39:16;12.82;;;10.38;;
23163;SDS011;31429;42.674;23.350;2022-12-18T02:40:21;11.43;;;9.65;;
23163;SDS011;31429;42.674;23.350;2022-12-18T02:41:23;12.05;;;10.77;;
23163;SDS011;31429;42.674;23.350;2022-12-18T02:42:27;11.88;;;9.70;;
23163;SDS011;31429;42.674;23.350;2022-12-18T02:43:29;11.13;;;9.35;;
23163;SDS011;31429;42.674;23.350;2022-12-18T02:44:30;13.13;;;10.80;;
23163;SDS011;31429;42.674;23.350;2022-12-18T02:45:30;12.90;;;11.40;;
23163;SDS011;31429;42.674;23.350;2022-12-18T02:46:32;11.60;;;10.40;;
23163;SDS011;31429;42.674;23.350;2022-12-18T02:47:36;12.77;;;10.23;;
23163;SDS011;31429;42.674;23.350;2022-12-18T02:48:39;11.68;;;10.13;;
23163;SDS011;31429;42.674;23.350;2022-12-18T02:49:43;12.73;;;10.60;;
23163;SDS011;31429;42.674;23.350;2022-12-18T02:50:52;11.60;;;10.30;;
23163;SDS011;31429;42.674;23.350;2022-12-18T02:52:05;12.65;;;10.30;;
23163;SDS011;31429;42.674;23.350;2022-12-18T02:53:17;13.30;;;11.07;;
23163;SDS011;31429;42.674;23.350;2022-12-18T02:54:27;12.18;;;10.88;;
23163;SDS011;31429;42.674;23.350;2022-12-18T02:55:39;13.27;;;10.43;;
23163;SDS011;31429;42.674;23.350;2022-12-18T02:56:53;13.20;;;11.10;;
23163;SDS011;31429;42.674;23.350;2022-12-18T02:57:58;13.35;;;10.98;;
23163;SDS011;31429;42.674;23.350;2022-12-18T02:59:04;14.35;;;11.02;;
23163;SDS011;31429;42.674;23.350;2022-12-18T03:00:10;12.57;;;11.25;;
23163;SDS011;31429;42.674;23.350;2022-12-18T03:01:14;13.35;;;10.95;;
23163;SDS011;31429;42.674;23.350;2022-12-18T03:02:21;13.10;;;10.80;;
23163;SDS011;31429;42.674;23.350;2022-12-18T03:03:29;15.20;;;11.88;;
23163;SDS011;31429;42.674;23.350;2022-12-18T03:04:36;13.93;;;11.35;;
23163;SDS011;31429;42.674;23.350;2022-12-18T03:05:43;15.25;;;11.43;;
23163;SDS011;31429;42.674;23.350;2022-12-18T03:06:51;14.05;;;12.10;;
23163;SDS011;31429;42.674;23.350;2022-12-18T03:07:56;13.82;;;11.65;;
23163;SDS011;31429;42.674;23.350;2022-12-18T03:09:02;13.85;;;11.75;;
23163;SDS011;31429;42.674;23.350;2022-12-18T03:10:08;12.27;;;11.00;;
23163;SDS011;31429;42.674;23.350;2022-12-18T03:11:12;13.60;;;12.10;;
23163;SDS011;31429;42.674;23.350;2022-12-18T03:12:14;12.88;;;11.50;;
23163;SDS011;31429;42.674;23.350;2022-12-18T03:13:27;14.50;;;10.80;;
23163;SDS011;31429;42.674;23.350;2022-12-18T03:14:32;13.38;;;11.43;;
23163;SDS011;31429;42.674;23.350;2022-12-18T03:15:38;14.38;;;11.02;;
23163;SDS011;31429;42.674;23.350;2022-12-18T03:16:42;12.93;;;9.95;;
23163;SDS011;31429;42.674;23.350;2022-12-18T03:17:45;11.38;;;10.18;;
23163;SDS011;31429;42.674;23.350;2022-12-18T03:18:52;12.18;;;10.07;;
23163;SDS011;31429;42.674;23.350;2022-12-18T03:19:58;14.32;;;11.35;;
23163;SDS011;31429;42.674;23.350;2022-12-18T03:21:04;14.07;;;10.35;;
23163;SDS011;31429;42.674;23.350;2022-12-18T03:22:06;12.15;;;10.70;;
23163;SDS011;31429;42.674;23.350;2022-12-18T03:23:09;11.65;;;10.45;;
23163;SDS011;31429;42.674;23.350;2022-12-18T03:24:13;12.82;;;9.77;;
23163;SDS011;31429;42.674;23.350;2022-12-18T03:25:15;13.05;;;10.10;;
23163;SDS011;31429;42.674;23.350;2022-12-18T03:26:19;12.23;;;10.35;;
23163;SDS011;31429;42.674;23.350;2022-12-18T03:27:24;13.35;;;10.25;;
23163;SDS011;31429;42.674;23.350;2022-12-18T03:28:29;10.85;;;9.02;;
23163;SDS011;31429;42.674;23.350;2022-12-18T03:29:35;13.68;;;9.88;;
23163;SDS011;31429;42.674;23.350;2022-12-18T03:30:38;13.13;;;10.10;;
23163;SDS011;31429;42.674;23.350;2022-12-18T03:31:41;11.88;;;10.57;;
23163;SDS011;31429;42.674;23.350;2022-12-18T03:32:47;11.10;;;9.90;;
23163;SDS011;31429;42.674;23.350;2022-12-18T03:34:08;12.25;;;10.73;;
23163;SDS011;31429;42.674;23.350;2022-12-18T03:35:12;12.48;;;9.98;;
23163;SDS011;31429;42.674;23.350;2022-12-18T03:36:18;11.57;;;10.32;;
23163;SDS011;31429;42.674;23.350;2022-12-18T03:37:18;13.37;;;11.03;;
23163;SDS011;31429;42.674;23.350;2022-12-18T03:38:19;14.37;;;10.83;;
23163;SDS011;31429;42.674;23.350;2022-12-18T03:39:20;12.97;;;10.57;;
23163;SDS011;31429;42.674;23.350;2022-12-18T03:40:21;12.43;;;10.23;;
23163;SDS011;31429;42.674;23.350;2022-12-18T03:41:29;15.25;;;11.45;;
23163;SDS011;31429;42.674;23.350;2022-12-18T03:42:35;11.85;;;9.70;;
23163;SDS011;31429;42.674;23.350;2022-12-18T03:43:47;12.77;;;10.55;;
23163;SDS011;31429;42.674;23.350;2022-12-18T03:44:52;13.15;;;10.05;;
23163;SDS011;31429;42.674;23.350;2022-12-18T03:46:00;12.77;;;10.73;;
23163;SDS011;31429;42.674;23.350;2022-12-18T03:47:07;13.93;;;10.98;;
23163;SDS011;31429;42.674;23.350;2022-12-18T03:48:13;13.25;;;10.70;;
23163;SDS011;31429;42.674;23.350;2022-12-18T03:49:21;11.70;;;10.43;;
23163;SDS011;31429;42.674;23.350;2022-12-18T03:50:27;13.93;;;10.70;;
23163;SDS011;31429;42.674;23.350;2022-12-18T03:51:38;12.82;;;10.75;;
23163;SDS011;31429;42.674;23.350;2022-12-18T03:52:46;16.35;;;10.68;;
23163;SDS011;31429;42.674;23.350;2022-12-18T03:53:52;12.98;;;10.35;;
23163;SDS011;31429;42.674;23.350;2022-12-18T03:54:57;12.30;;;10.23;;
23163;SDS011;31429;42.674;23.350;2022-12-18T03:56:00;12.75;;;10.10;;
23163;SDS011;31429;42.674;23.350;2022-12-18T03:57:03;12.52;;;10.73;;
23163;SDS011;31429;42.674;23.350;2022-12-18T03:58:07;14.05;;;11.13;;
23163;SDS011;31429;42.674;23.350;2022-12-18T03:59:12;15.13;;;10.55;;
23163;SDS011;31429;42.674;23.350;2022-12-18T04:00:15;12.98;;;10.20;;
23163;SDS011;31429;42.674;23.350;2022-12-18T04:01:18;12.82;;;10.75;;
23163;SDS011;31429;42.674;23.350;2022-12-18T04:02:23;12.93;;;10.82;;
23163;SDS011;31429;42.674;23.350;2022-12-18T04:03:24;14.35;;;11.15;;
23163;SDS011;31429;42.674;23.350;2022-12-18T04:04:28;13.38;;;10.75;;
23163;SDS011;31429;42.674;23.350;2022-12-18T04:05:30;11.95;;;10.20;;
23163;SDS011;31429;42.674;23.350;2022-12-18T04:06:33;15.32;;;10.40;;
23163;SDS011;31429;42.674;23.350;2022-12-18T04:07:35;13.15;;;10.40;;
23163;SDS011;31429;42.674;23.350;2022-12-18T04:08:37;13.25;;;10.98;;
23163;SDS011;31429;42.674;23.350;2022-12-18T04:09:40;12.75;;;10.77;;
23163;SDS011;31429;42.674;23.350;2022-12-18T04:10:41;12.48;;;11.18;;
23163;SDS011;31429;42.674;23.350;2022-12-18T04:11:42;13.57;;;10.90;;
23163;SDS011;31429;42.674;23.350;2022-12-18T04:12:46;13.63;;;10.85;;
23163;SDS011;31429;42.674;23.350;2022-12-18T04:13:47;13.53;;;10.97;;
23163;SDS011;31429;42.674;23.350;2022-12-18T04:14:49;11.50;;;10.30;;
23163;SDS011;31429;42.674;23.350;2022-12-18T04:15:50;14.10;;;11.02;;
23163;SDS011;31429;42.674;23.350;2022-12-18T04:16:51;12.95;;;11.05;;
23163;SDS011;31429;42.674;23.350;2022-12-18T04:17:51;14.90;;;11.73;;
23163;SDS011;31429;42.674;23.350;2022-12-18T04:18:52;12.57;;;11.27;;
23163;SDS011;31429;42.674;23.350;2022-12-18T04:19:53;14.45;;;10.85;;
23163;SDS011;31429;42.674;23.350;2022-12-18T04:20:54;14.43;;;11.70;;
23163;SDS011;31429;42.674;23.350;2022-12-18T04:21:54;14.63;;;10.90;;
23163;SDS011;31429;42.674;23.350;2022-12-18T04:22:55;14.93;;;12.30;;
23163;SDS011;31429;42.674;23.350;2022-12-18T04:23:55;13.83;;;11.43;;
23163;SDS011;31429;42.674;23.350;2022-12-18T04:24:56;13.57;;;11.10;;
23163;SDS011;31429;42.674;23.350;2022-12-18T04:25:57;15.97;;;12.17;;
23163;SDS011;31429;42.674;23.350;2022-12-18T04:26:57;15.83;;;11.83;;
23163;SDS011;31429;42.674;23.350;2022-12-18T04:27:58;16.40;;;12.03;;
23163;SDS011;31429;42.674;23.350;2022-12-18T04:28:59;17.17;;;11.70;;
23163;SDS011;31429;42.674;23.350;2022-12-18T04:30:00;14.60;;;12.17;;
23163;SDS011;31429;42.674;23.350;2022-12-18T04:31:01;14.65;;;12.48;;
23163;SDS011;31429;42.674;23.350;2022-12-18T04:32:02;15.13;;;12.50;;
23163;SDS011;31429;42.674;23.350;2022-12-18T04:33:03;15.57;;;11.57;;
23163;SDS011;31429;42.674;23.350;2022-12-18T04:34:03;15.47;;;12.23;;
23163;SDS011;31429;42.674;23.350;2022-12-18T04:35:04;15.60;;;12.53;;
23163;SDS011;31429;42.674;23.350;2022-12-18T04:36:10;15.50;;;12.10;;
23163;SDS011;31429;42.674;23.350;2022-12-18T04:37:12;15.80;;;12.70;;
23163;SDS011;31429;42.674;23.350;2022-12-18T04:38:13;15.77;;;12.67;;
23163;SDS011;31429;42.674;23.350;2022-12-18T04:39:14;15.93;;;12.57;;
23163;SDS011;31429;42.674;23.350;2022-12-18T04:40:14;16.57;;;12.30;;
23163;SDS011;31429;42.674;23.350;2022-12-18T04:41:15;18.57;;;13.80;;
23163;SDS011;31429;42.674;23.350;2022-12-18T04:42:16;16.43;;;12.60;;
23163;SDS011;31429;42.674;23.350;2022-12-18T04:43:16;15.40;;;12.03;;
23163;SDS011;31429;42.674;23.350;2022-12-18T04:44:17;15.60;;;12.40;;
23163;SDS011;31429;42.674;23.350;2022-12-18T04:45:19;17.20;;;13.40;;
23163;SDS011;31429;42.674;23.350;2022-12-18T04:46:20;17.33;;;13.48;;
23163;SDS011;31429;42.674;23.350;2022-12-18T04:47:20;16.27;;;13.00;;
23163;SDS011;31429;42.674;23.350;2022-12-18T04:48:21;17.33;;;12.67;;
23163;SDS011;31429;42.674;23.350;2022-12-18T04:49:22;16.00;;;12.83;;
23163;SDS011;31429;42.674;23.350;2022-12-18T04:50:22;18.07;;;13.37;;
23163;SDS011;31429;42.674;23.350;2022-12-18T04:51:23;19.13;;;14.23;;
23163;SDS011;31429;42.674;23.350;2022-12-18T04:52:23;19.10;;;13.17;;
23163;SDS011;31429;42.674;23.350;2022-12-18T04:53:24;18.40;;;13.40;;
23163;SDS011;31429;42.674;23.350;2022-12-18T04:54:25;17.43;;;13.57;;
23163;SDS011;31429;42.674;23.350;2022-12-18T04:55:26;15.77;;;12.67;;
23163;SDS011;31429;42.674;23.350;2022-12-18T04:56:26;17.67;;;14.30;;
23163;SDS011;31429;42.674;23.350;2022-12-18T04:57:27;18.53;;;14.43;;
23163;SDS011;31429;42.674;23.350;2022-12-18T04:58:28;18.33;;;14.07;;
23163;SDS011;31429;42.674;23.350;2022-12-18T04:59:28;19.67;;;14.70;;
23163;SDS011;31429;42.674;23.350;2022-12-18T05:00:30;18.33;;;14.17;;
23163;SDS011;31429;42.674;23.350;2022-12-18T05:01:31;18.33;;;14.30;;
23163;SDS011;31429;42.674;23.350;2022-12-18T05:02:33;17.15;;;13.65;;
23163;SDS011;31429;42.674;23.350;2022-12-18T05:03:34;20.63;;;15.47;;
23163;SDS011;31429;42.674;23.350;2022-12-18T05:04:35;18.70;;;14.65;;
23163;SDS011;31429;42.674;23.350;2022-12-18T05:05:35;20.43;;;15.20;;
23163;SDS011;31429;42.674;23.350;2022-12-18T05:06:36;19.93;;;15.27;;
23163;SDS011;31429;42.674;23.350;2022-12-18T05:07:36;19.33;;;15.03;;
23163;SDS011;31429;42.674;23.350;2022-12-18T05:08:37;21.77;;;15.40;;
23163;SDS011;31429;42.674;23.350;2022-12-18T05:09:38;20.60;;;14.50;;
23163;SDS011;31429;42.674;23.350;2022-12-18T05:10:39;19.87;;;15.37;;
23163;SDS011;31429;42.674;23.350;2022-12-18T05:11:39;22.47;;;17.37;;
23163;SDS011;31429;42.674;23.350;2022-12-18T05:12:40;21.33;;;16.80;;
23163;SDS011;31429;42.674;23.350;2022-12-18T05:13:58;20.45;;;16.38;;
23163;SDS011;31429;42.674;23.350;2022-12-18T05:14:58;22.13;;;16.43;;
23163;SDS011;31429;42.674;23.350;2022-12-18T05:16:00;21.50;;;16.33;;
23163;SDS011;31429;42.674;23.350;2022-12-18T05:17:02;21.85;;;16.23;;
23163;SDS011;31429;42.674;23.350;2022-12-18T05:18:02;20.63;;;14.93;;
23163;SDS011;31429;42.674;23.350;2022-12-18T05:19:04;22.58;;;15.65;;
23163;SDS011;31429;42.674;23.350;2022-12-18T05:20:05;23.00;;;17.10;;
23163;SDS011;31429;42.674;23.350;2022-12-18T05:21:06;21.30;;;16.83;;
23163;SDS011;31429;42.674;23.350;2022-12-18T05:22:06;21.20;;;15.87;;
23163;SDS011;31429;42.674;23.350;2022-12-18T05:23:07;21.63;;;16.73;;
23163;SDS011;31429;42.674;23.350;2022-12-18T05:24:08;23.30;;;15.97;;
23163;SDS011;31429;42.674;23.350;2022-12-18T05:25:08;20.47;;;15.77;;
23163;SDS011;31429;42.674;23.350;2022-12-18T05:26:09;22.67;;;17.07;;
23163;SDS011;31429;42.674;23.350;2022-12-18T05:27:14;22.35;;;16.50;;
23163;SDS011;31429;42.674;23.350;2022-12-18T05:28:15;21.13;;;16.50;;
23163;SDS011;31429;42.674;23.350;2022-12-18T05:29:16;22.43;;;17.07;;
23163;SDS011;31429;42.674;23.350;2022-12-18T05:30:16;21.97;;;16.43;;
23163;SDS011;31429;42.674;23.350;2022-12-18T05:31:18;20.30;;;15.10;;
23163;SDS011;31429;42.674;23.350;2022-12-18T05:32:19;20.58;;;15.43;;
23163;SDS011;31429;42.674;23.350;2022-12-18T05:33:20;20.13;;;15.87;;
23163;SDS011;31429;42.674;23.350;2022-12-18T05:34:21;20.73;;;15.93;;
23163;SDS011;31429;42.674;23.350;2022-12-18T05:35:22;23.63;;;17.47;;
23163;SDS011;31429;42.674;23.350;2022-12-18T05:36:23;22.83;;;16.60;;
23163;SDS011;31429;42.674;23.350;2022-12-18T05:37:23;21.67;;;16.23;;
23163;SDS011;31429;42.674;23.350;2022-12-18T05:38:24;21.63;;;15.53;;
23163;SDS011;31429;42.674;23.350;2022-12-18T05:39:26;22.52;;;16.60;;
23163;SDS011;31429;42.674;23.350;2022-12-18T05:40:27;21.80;;;15.67;;
23163;SDS011;31429;42.674;23.350;2022-12-18T05:41:27;22.30;;;15.93;;
23163;SDS011;31429;42.674;23.350;2022-12-18T05:42:28;20.70;;;15.73;;
23163;SDS011;31429;42.674;23.350;2022-12-18T05:43:29;23.10;;;16.57;;
23163;SDS011;31429;42.674;23.350;2022-12-18T05:44:30;23.60;;;16.50;;
23163;SDS011;31429;42.674;23.350;2022-12-18T05:45:31;21.70;;;16.67;;
23163;SDS011;31429;42.674;23.350;2022-12-18T05:46:33;21.03;;;16.00;;
23163;SDS011;31429;42.674;23.350;2022-12-18T05:47:34;23.10;;;16.90;;
23163;SDS011;31429;42.674;23.350;2022-12-18T05:48:34;23.37;;;17.20;;
23163;SDS011;31429;42.674;23.350;2022-12-18T05:49:35;21.10;;;16.17;;
23163;SDS011;31429;42.674;23.350;2022-12-18T05:50:36;23.67;;;16.83;;
23163;SDS011;31429;42.674;23.350;2022-12-18T05:51:37;25.33;;;16.60;;
23163;SDS011;31429;42.674;23.350;2022-12-18T05:52:37;24.67;;;17.87;;
23163;SDS011;31429;42.674;23.350;2022-12-18T05:53:38;22.60;;;16.67;;
23163;SDS011;31429;42.674;23.350;2022-12-18T05:54:39;20.00;;;16.07;;
23163;SDS011;31429;42.674;23.350;2022-12-18T05:55:39;23.50;;;16.77;;
23163;SDS011;31429;42.674;23.350;2022-12-18T05:56:41;23.75;;;17.45;;
23163;SDS011;31429;42.674;23.350;2022-12-18T05:57:42;21.03;;;16.27;;
23163;SDS011;31429;42.674;23.350;2022-12-18T05:58:43;23.10;;;17.23;;
23163;SDS011;31429;42.674;23.350;2022-12-18T05:59:43;20.67;;;16.33;;
23163;SDS011;31429;42.674;23.350;2022-12-18T06:00:45;20.33;;;16.47;;
23163;SDS011;31429;42.674;23.350;2022-12-18T06:01:47;26.75;;;18.40;;
23163;SDS011;31429;42.674;23.350;2022-12-18T06:02:48;22.65;;;16.50;;
23163;SDS011;31429;42.674;23.350;2022-12-18T06:03:49;23.13;;;17.27;;
23163;SDS011;31429;42.674;23.350;2022-12-18T06:04:49;24.00;;;17.23;;
23163;SDS011;31429;42.674;23.350;2022-12-18T06:05:50;21.03;;;16.43;;